This is the latest recevied weather packets stored in our database for station/object JF7BTK-10. If no packets are shown the sender has not sent any weather packets the latest 10 day(s).
| Time | Temp. | Humidity | Pressure | Rain* | Wind** | Luminosity | Snow |
|---|---|---|---|---|---|---|---|
| 1788335151 | 25.56° C | 92% | 1006.2 hPa | 0.76 mm | - | - | - |
| 1788334986 | 25.56° C | 93% | 1006.3 hPa | 0.76 mm | - | - | - |
| 1788334086 | 25° C | 89% | 1006.3 hPa | 0.76 mm | - | - | - |
| 1788333651 | 25° C | 87% | 1006.1 hPa | 0.76 mm | - | - | - |
| 1788333187 | 25.56° C | 86% | 1006.3 hPa | 0.76 mm | - | - | - |
| 1788332306 | 26.67° C | 82% | 1006.2 hPa | 0.76 mm | - | - | - |
| 1788331387 | 27.78° C | 79% | 1006 hPa | 0 mm | - | - | - |
| 1788330488 | 28.33° C | 77% | 1005.9 hPa | 0 mm | - | - | - |
| 1788329587 | 28.33° C | 81% | 1005.6 hPa | 0 mm | - | - | - |
| 1788328687 | 27.78° C | 81% | 1005.7 hPa | 0 mm | - | - | - |
| 1788327787 | 27.78° C | 78% | 1005.4 hPa | 0 mm | - | - | - |
| 1788326886 | 28.33° C | 76% | 1005.7 hPa | 0 mm | - | - | - |
| 1788325986 | 28.33° C | 76% | 1005.7 hPa | 0.25 mm | - | - | - |
| 1788325089 | 27.78° C | 79% | 1005.3 hPa | 0.25 mm | - | - | - |
| 1788324187 | 27.22° C | 85% | 1005.5 hPa | 0.25 mm | - | - | - |
| 1788323288 | 27.78° C | 78% | 1005.8 hPa | 0.25 mm | - | - | - |
| 1788322388 | 27.78° C | 77% | 1005.9 hPa | 0 mm | - | - | - |
| 1788321487 | 28.33° C | 79% | 1006.1 hPa | 0 mm | - | - | - |
| 1788320586 | 27.78° C | 79% | 1005.6 hPa | 0 mm | - | - | - |
| 1788319687 | 27.78° C | 80% | 1005.9 hPa | 0 mm | - | - | - |
| 1788318787 | 27.22° C | 85% | 1005.9 hPa | 0 mm | - | - | - |
| 1788317887 | 27.22° C | 82% | 1006 hPa | 0 mm | - | - | - |
| 1788316988 | 27.78° C | 83% | 1005.9 hPa | 0 mm | - | - | - |
| 1788316087 | 25.56° C | 98% | 1006 hPa | 0 mm | - | - | - |
| 1788315188 | 25° C | 99% | 1006.2 hPa | 2.54 mm | - | - | - |
* Rain latest hour (hover to see other rain measurements)
** Current wind speed in m/s (hover to see current wind gust speed)